Time;durP1;ratioP1;P1;durP2;ratioP2;P2;SDS_P1;SDS_P2;PMS_P1;PMS_P2;Temp;Humidity;BMP_temperature;BMP_pressure;BME280_temperature;BME280_humidity;BME280_pressure;Samples;Min_cycle;Max_cycle;Signal;HPM_P1;HPM_P2
2023/02/26 00:01:28;;;;;;;1.27;1.00;;;1.80;99.90;0.30;99944.00;;;;4950005;28;94578;-76
2023/02/26 00:04:02;;;;;;;1.30;1.20;;;2.00;99.90;0.20;99939.00;;;;4935139;28;92902;-77
2023/02/26 00:06:33;;;;;;;1.43;1.20;;;0.60;99.90;0.30;99949.00;;;;4916226;28;102583;-75
2023/02/26 00:08:59;;;;;;;1.00;0.77;;;0.70;99.90;0.30;99951.00;;;;4933313;28;95367;-75
2023/02/26 00:11:25;;;;;;;1.07;0.80;;;1.70;99.90;0.30;99963.00;;;;4935218;28;118400;-77
2023/02/26 00:13:51;;;;;;;1.27;1.03;;;0.60;99.90;0.30;99957.00;;;;4936275;28;93450;-76
2023/02/26 00:16:35;;;;;;;2.23;1.40;;;0.60;99.90;0.20;99962.00;;;;4932863;28;93000;-78
2023/02/26 00:19:06;;;;;;;1.03;0.93;;;0.50;99.90;0.30;99958.00;;;;4952947;28;96224;-76
2023/02/26 00:21:35;;;;;;;1.30;1.20;;;1.00;99.90;0.30;99966.00;;;;4935524;28;93879;-78
2023/02/26 00:24:05;;;;;;;1.67;1.03;;;0.60;99.90;0.30;99966.00;;;;4934021;28;92958;-82
2023/02/26 00:26:32;;;;;;;2.73;1.27;;;0.60;99.90;0.30;99970.00;;;;4917285;28;93241;-77
2023/02/26 00:28:59;;;;;;;0.83;0.83;;;0.60;99.90;0.30;99962.00;;;;4933659;28;93540;-79
2023/02/26 00:31:26;;;;;;;0.87;0.87;;;0.60;99.90;0.30;99972.00;;;;4932452;28;111057;-76
2023/02/26 00:33:54;;;;;;;1.00;0.90;;;0.50;99.90;0.30;99971.00;;;;4927971;28;92966;-79
2023/02/26 00:36:50;;;;;;;1.30;1.20;;;0.70;99.90;0.30;99970.00;;;;4933330;28;95988;-77
2023/02/26 00:39:45;;;;;;;1.60;0.97;;;0.60;99.90;0.20;99978.00;;;;4948561;28;94780;-78
2023/02/26 00:42:12;;;;;;;1.77;0.90;;;0.70;99.90;0.30;99976.00;;;;4933712;28;93155;-78
2023/02/26 00:44:39;;;;;;;2.63;1.20;;;0.60;99.90;0.30;99984.00;;;;4934949;28;101083;-78
2023/02/26 00:47:39;;;;;;;1.80;1.10;;;0.60;99.90;0.30;99991.00;;;;4932816;28;94039;-77
2023/02/26 00:50:20;;;;;;;1.17;0.97;;;0.70;99.90;0.30;99995.00;;;;4934061;28;104223;-81
2023/02/26 00:53:16;;;;;;;2.63;1.17;;;0.60;99.90;0.30;99993.00;;;;4946622;28;94285;-80
2023/02/26 00:55:42;;;;;;;1.27;0.97;;;0.60;99.90;0.30;99996.00;;;;4933457;28;93015;-77
2023/02/26 00:58:07;;;;;;;1.13;0.80;;;0.60;99.90;0.30;99997.00;;;;4951037;28;109291;-77
2023/02/26 01:00:33;;;;;;;1.67;1.23;;;0.50;99.90;0.30;99995.00;;;;4936214;28;121827;-77
2023/02/26 01:02:59;;;;;;;1.50;0.93;;;1.30;99.90;0.30;100000.00;;;;4934607;28;122077;-77
2023/02/26 01:05:26;;;;;;;1.07;0.97;;;0.60;99.90;0.30;100000.00;;;;4938892;28;92088;-78
2023/02/26 01:08:18;;;;;;;1.57;1.20;;;0.70;99.90;0.30;100003.00;;;;4935330;28;96651;-76
2023/02/26 01:10:44;;;;;;;1.00;0.90;;;0.60;99.90;0.40;100004.00;;;;4932685;28;93352;-76
2023/02/26 01:13:11;;;;;;;2.77;1.10;;;0.70;99.90;0.40;100009.00;;;;4935533;28;113660;-79
2023/02/26 01:15:37;;;;;;;1.10;1.00;;;1.60;99.90;0.40;100010.00;;;;4928789;28;93253;-77
2023/02/26 01:18:18;;;;;;;1.23;0.77;;;0.70;99.90;0.40;100014.00;;;;4932162;28;92925;-77
2023/02/26 01:20:50;;;;;;;1.67;1.50;;;0.60;99.90;0.40;100026.00;;;;4917015;28;101152;-77
2023/02/26 01:23:24;;;;;;;0.50;0.50;;;0.80;99.90;0.40;100021.00;;;;4921238;28;114245;-81
2023/02/26 01:25:56;;;;;;;2.67;1.47;;;2.40;99.90;0.40;100017.00;;;;4935132;28;92785;-80
2023/02/26 01:28:23;;;;;;;0.90;0.80;;;0.70;99.90;0.40;100024.00;;;;4918979;28;92997;-81
2023/02/26 01:30:52;;;;;;;1.00;0.90;;;0.80;99.90;0.40;100031.00;;;;4904129;28;102903;-80
2023/02/26 01:33:30;;;;;;;1.53;0.90;;;0.60;99.90;0.40;100027.00;;;;4914523;28;93245;-77
2023/02/26 01:36:19;;;;;;;0.83;0.83;;;0.70;99.90;0.40;100017.00;;;;4944525;28;95341;-77
2023/02/26 01:39:04;;;;;;;0.63;0.60;;;0.70;99.90;0.40;100023.00;;;;4917333;28;93754;-80
2023/02/26 01:41:57;;;;;;;0.80;0.80;;;0.70;99.90;0.40;100031.00;;;;4915648;28;114490;-81
2023/02/26 01:44:34;;;;;;;0.80;0.77;;;0.60;99.90;0.40;100041.00;;;;4933877;28;93339;-77
2023/02/26 01:47:22;;;;;;;2.00;1.30;;;0.70;99.90;0.40;100050.00;;;;4916218;28;93414;-77
2023/02/26 01:49:48;;;;;;;1.27;0.97;;;0.70;99.90;0.40;100049.00;;;;4937056;28;93003;-77
2023/02/26 01:53:09;;;;;;;0.43;0.43;;;0.70;99.90;0.40;100050.00;;;;4912046;28;108254;-82
2023/02/26 01:55:35;;;;;;;2.30;1.00;;;0.80;99.90;0.40;100058.00;;;;4898495;28;113956;-82
2023/02/26 01:58:02;;;;;;;0.50;0.50;;;2.30;99.90;0.40;100055.00;;;;4913244;28;113197;-79
2023/02/26 02:00:30;;;;;;;1.30;0.80;;;0.70;99.90;0.40;100066.00;;;;4916607;28;93167;-79
2023/02/26 02:02:55;;;;;;;0.50;0.50;;;0.60;99.90;0.40;100069.00;;;;4911389;28;93289;-77
2023/02/26 02:05:32;;;;;;;1.27;1.10;;;0.70;99.90;0.40;100069.00;;;;4933700;28;124652;-82
2023/02/26 02:07:58;;;;;;;0.53;0.53;;;2.20;99.90;0.40;100069.00;;;;4901582;28;93084;-77
2023/02/26 02:10:25;;;;;;;0.60;0.60;;;0.70;99.90;0.40;100069.00;;;;4918251;28;93020;-78
2023/02/26 02:13:02;;;;;;;0.50;0.50;;;0.70;99.90;0.40;100066.00;;;;4944666;28;102673;-77
2023/02/26 02:15:59;;;;;;;0.70;0.70;;;0.70;99.90;0.30;100077.00;;;;4896914;28;94817;-80
2023/02/26 02:18:48;;;;;;;1.00;0.97;;;0.70;99.90;0.30;100084.00;;;;4917140;28;98883;-79
2023/02/26 02:21:40;;;;;;;0.93;0.83;;;0.70;99.90;0.30;100082.00;;;;4915766;28;93132;-77
2023/02/26 02:24:13;;;;;;;0.47;0.47;;;0.60;99.90;0.30;100089.00;;;;4931738;28;95088;-80
2023/02/26 02:27:11;;;;;;;1.03;0.80;;;0.50;99.90;0.20;100093.00;;;;4914504;28;93079;-76
2023/02/26 02:30:36;;;;;;;1.07;0.97;;;0.70;99.90;0.20;100095.00;;;;4926546;28;93017;-77
2023/02/26 02:33:15;;;;;;;1.53;0.80;;;0.60;99.90;0.30;100087.00;;;;4873543;28;98214;-80
2023/02/26 02:35:49;;;;;;;1.63;0.80;;;0.60;99.90;0.20;100107.00;;;;4937237;28;94125;-80
2023/02/26 02:38:32;;;;;;;2.20;0.87;;;0.60;99.90;0.20;100107.00;;;;4917896;28;112216;-77
2023/02/26 02:41:10;;;;;;;0.73;0.73;;;2.00;99.90;0.30;100094.00;;;;4939892;28;97945;-77
2023/02/26 02:43:38;;;;;;;1.00;0.80;;;0.60;99.90;0.30;100103.00;;;;4904659;28;104057;-77
2023/02/26 02:46:20;;;;;;;1.80;0.77;;;1.10;99.90;0.30;100104.00;;;;4928480;28;95365;-78
2023/02/26 02:48:58;;;;;;;1.70;0.97;;;0.60;99.90;0.30;100102.00;;;;4919372;28;93084;-80
2023/02/26 02:51:33;;;;;;;1.13;1.07;;;1.50;99.90;0.30;100113.00;;;;4924799;28;92493;-76
2023/02/26 02:54:31;;;;;;;1.10;1.00;;;0.60;99.90;0.30;100122.00;;;;4923285;28;92952;-79
2023/02/26 02:57:32;;;;;;;0.93;0.83;;;0.60;99.90;0.20;100124.00;;;;4921395;28;95792;-76
2023/02/26 03:00:09;;;;;;;0.93;0.67;;;0.50;99.90;0.20;100127.00;;;;4911976;28;94084;-77
2023/02/26 03:02:50;;;;;;;1.87;1.10;;;0.50;99.90;0.20;100128.00;;;;4920843;28;93023;-77
2023/02/26 03:05:16;;;;;;;1.00;0.80;;;0.60;99.90;0.20;100132.00;;;;4919295;28;93394;-78
2023/02/26 03:08:07;;;;;;;1.33;1.13;;;0.60;99.90;0.20;100147.00;;;;4939067;28;99568;-77
2023/02/26 03:10:33;;;;;;;0.83;0.83;;;0.30;99.90;0.20;100132.00;;;;4933531;28;106352;-78
2023/02/26 03:12:59;;;;;;;2.00;1.13;;;2.10;99.90;0.20;100144.00;;;;4907598;28;93127;-78
2023/02/26 03:16:06;;;;;;;0.70;0.70;;;0.50;99.90;0.20;100148.00;;;;4939543;28;92868;-76
2023/02/26 03:19:07;;;;;;;0.87;0.80;;;0.60;99.90;0.20;100162.00;;;;4934715;28;94156;-77
2023/02/26 03:21:49;;;;;;;0.90;0.77;;;0.50;99.90;0.20;100166.00;;;;4934706;28;94593;-75
2023/02/26 03:24:32;;;;;;;1.33;0.80;;;0.50;99.90;0.20;100162.00;;;;4954030;28;93156;-79
2023/02/26 03:27:12;;;;;;;2.93;1.00;;;0.60;99.90;0.20;100173.00;;;;4946900;28;95095;-78
2023/02/26 03:30:02;;;;;;;0.70;0.60;;;0.50;99.90;0.20;100181.00;;;;4930603;28;93279;-77
2023/02/26 03:32:45;;;;;;;2.07;0.97;;;0.60;99.90;0.20;100164.00;;;;4933709;28;107509;-77
2023/02/26 03:35:18;;;;;;;1.20;0.80;;;0.60;99.90;0.20;100185.00;;;;4955763;28;93838;-77
2023/02/26 03:37:52;;;;;;;2.77;1.23;;;0.70;99.90;0.20;100189.00;;;;4935820;28;92948;-75
2023/02/26 03:40:31;;;;;;;1.10;1.00;;;0.50;99.90;0.20;100197.00;;;;4936909;28;110524;-77
2023/02/26 03:43:23;;;;;;;1.90;0.77;;;0.50;99.90;0.20;100187.00;;;;4951209;28;93410;-77
2023/02/26 03:45:55;;;;;;;1.57;1.20;;;0.50;99.90;0.10;100198.00;;;;4937662;28;91989;-75
2023/02/26 03:48:26;;;;;;;1.17;0.77;;;0.50;99.90;0.10;100199.00;;;;4934172;28;94877;-76
2023/02/26 03:50:59;;;;;;;0.40;0.40;;;0.50;99.90;0.10;100207.00;;;;4950010;28;112627;-78
2023/02/26 03:53:33;;;;;;;0.47;0.47;;;0.60;99.90;0.00;100210.00;;;;4936915;28;95018;-78
2023/02/26 03:56:14;;;;;;;0.63;0.63;;;0.40;99.90;0.00;100221.00;;;;4956816;28;92918;-76
2023/02/26 03:58:39;;;;;;;0.60;0.50;;;0.40;99.90;0.00;100219.00;;;;4937861;28;93058;-77
2023/02/26 04:01:19;;;;;;;0.53;0.53;;;0.30;99.90;0.00;100221.00;;;;4934965;28;123354;-77
2023/02/26 04:03:57;;;;;;;7.43;0.97;;;-0.70;99.90;0.00;100223.00;;;;4937602;28;101186;-76
2023/02/26 04:06:23;;;;;;;0.67;0.67;;;0.40;99.90;0.00;100213.00;;;;4945966;28;93054;-75
2023/02/26 04:08:50;;;;;;;0.57;0.57;;;0.80;99.90;0.00;100224.00;;;;4936654;28;103585;-77
2023/02/26 04:11:19;;;;;;;0.50;0.50;;;0.40;99.90;0.00;100229.00;;;;4934727;28;122831;-74
2023/02/26 04:13:46;;;;;;;2.43;0.63;;;0.30;99.90;0.00;100239.00;;;;4933801;28;93164;-75
2023/02/26 04:16:13;;;;;;;1.17;1.03;;;0.30;99.90;0.00;100233.00;;;;4947881;28;95186;-75
2023/02/26 04:18:39;;;;;;;0.97;0.97;;;1.30;99.90;0.00;100243.00;;;;4933345;28;94016;-74
2023/02/26 04:21:06;;;;;;;2.50;0.60;;;0.40;99.90;0.00;100246.00;;;;4937447;28;94406;-76
2023/02/26 04:23:32;;;;;;;2.53;1.10;;;0.30;99.90;0.00;100244.00;;;;4966393;28;123010;-76
2023/02/26 04:25:58;;;;;;;2.33;0.90;;;0.40;99.90;0.00;100245.00;;;;4931067;28;100422;-75
2023/02/26 04:28:23;;;;;;;3.87;1.00;;;0.40;99.90;0.00;100244.00;;;;4936970;28;92922;-75
2023/02/26 04:30:49;;;;;;;1.23;0.90;;;0.30;99.90;0.00;100251.00;;;;4934181;28;121662;-75
2023/02/26 04:33:15;;;;;;;4.63;1.23;;;0.30;99.90;0.00;100259.00;;;;4935951;28;120360;-74
2023/02/26 04:35:41;;;;;;;0.73;0.60;;;0.40;99.90;0.00;100255.00;;;;4937172;28;91998;-76
2023/02/26 04:38:07;;;;;;;0.90;0.60;;;0.30;99.90;0.00;100263.00;;;;4915727;28;93152;-75
2023/02/26 04:40:32;;;;;;;1.20;0.80;;;0.30;99.90;0.00;100269.00;;;;4935603;28;122151;-73
2023/02/26 04:42:58;;;;;;;0.80;0.80;;;0.30;99.90;0.00;100272.00;;;;4950299;28;93895;-77
2023/02/26 04:45:24;;;;;;;2.00;1.40;;;1.70;99.90;0.00;100271.00;;;;4930420;28;110847;-76
2023/02/26 04:47:49;;;;;;;0.77;0.67;;;0.20;99.90;0.00;100276.00;;;;4929943;28;94035;-75
2023/02/26 04:50:15;;;;;;;0.57;0.50;;;0.40;99.90;0.00;100276.00;;;;4935325;28;97555;-74
2023/02/26 04:52:41;;;;;;;1.10;0.90;;;0.40;99.90;0.00;100290.00;;;;4934598;28;92996;-77
2023/02/26 04:55:08;;;;;;;1.10;1.00;;;0.40;99.90;0.10;100292.00;;;;4935602;28;110010;-77
2023/02/26 04:57:33;;;;;;;3.13;1.17;;;0.40;99.90;0.10;100288.00;;;;4935001;28;98928;-76
2023/02/26 04:59:59;;;;;;;4.90;0.73;;;0.40;99.90;0.10;100290.00;;;;4947966;28;122310;-76
2023/02/26 05:02:24;;;;;;;0.83;0.77;;;0.40;99.90;0.10;100290.00;;;;4943858;28;120827;-75
2023/02/26 05:04:50;;;;;;;2.23;0.90;;;1.50;99.90;0.10;100301.00;;;;4938050;28;110050;-74
2023/02/26 05:07:16;;;;;;;1.63;1.27;;;0.40;99.90;0.10;100302.00;;;;4939749;28;108983;-75
2023/02/26 05:09:41;;;;;;;1.33;0.90;;;0.40;99.90;0.10;100296.00;;;;4930642;28;121336;-76
2023/02/26 05:12:07;;;;;;;1.37;0.90;;;0.50;99.90;0.10;100288.00;;;;4932756;28;122536;-75
2023/02/26 05:14:33;;;;;;;1.10;1.00;;;0.40;99.90;0.10;100299.00;;;;4920048;28;94578;-74
2023/02/26 05:16:58;;;;;;;1.13;0.97;;;0.40;99.90;0.10;100312.00;;;;4919861;28;106129;-75
2023/02/26 05:19:24;;;;;;;1.20;0.90;;;0.40;99.90;0.10;100310.00;;;;4926925;28;122456;-74
2023/02/26 05:21:50;;;;;;;1.23;1.00;;;0.40;99.90;0.10;100310.00;;;;4934858;28;121447;-77
2023/02/26 05:24:16;;;;;;;5.07;1.03;;;0.40;99.90;0.10;100311.00;;;;4935413;28;93676;-75
2023/02/26 05:26:41;;;;;;;0.77;0.67;;;0.40;99.90;0.10;100319.00;;;;4918277;28;107238;-74
2023/02/26 05:29:07;;;;;;;0.73;0.70;;;1.60;99.90;0.10;100320.00;;;;4920655;28;93330;-76
2023/02/26 05:31:33;;;;;;;1.93;1.17;;;0.40;99.90;0.10;100334.00;;;;4934338;28;122886;-75
2023/02/26 05:33:59;;;;;;;1.33;1.17;;;0.40;99.90;0.10;100335.00;;;;4934182;28;109444;-74
2023/02/26 05:36:25;;;;;;;2.13;1.07;;;0.40;99.90;0.10;100340.00;;;;4934045;28;108521;-76
2023/02/26 05:38:51;;;;;;;2.60;0.93;;;1.40;99.90;0.10;100342.00;;;;4946272;28;122592;-74
2023/02/26 05:41:17;;;;;;;1.10;1.00;;;0.40;99.90;0.10;100349.00;;;;4930759;28;93447;-74
2023/02/26 05:43:43;;;;;;;1.10;0.90;;;0.40;99.90;0.10;100354.00;;;;4931997;28;109592;-75
2023/02/26 05:46:09;;;;;;;2.70;1.20;;;0.90;99.90;0.10;100359.00;;;;4917254;28;108466;-75
2023/02/26 05:48:34;;;;;;;1.67;0.90;;;0.40;99.90;0.10;100362.00;;;;4917482;28;92878;-74
2023/02/26 05:51:00;;;;;;;1.10;1.00;;;0.40;99.90;0.10;100370.00;;;;4935370;28;94183;-75
2023/02/26 05:53:26;;;;;;;3.03;0.60;;;0.40;99.90;0.10;100373.00;;;;4933939;28;92726;-73
2023/02/26 05:55:52;;;;;;;1.83;0.77;;;0.50;99.90;0.10;100369.00;;;;4928903;28;108807;-76
2023/02/26 05:58:18;;;;;;;0.70;0.70;;;0.40;99.90;0.10;100381.00;;;;4931120;28;110524;-76
2023/02/26 06:00:44;;;;;;;1.70;1.10;;;1.30;99.90;0.10;100387.00;;;;4886834;28;96676;-74
2023/02/26 06:03:10;;;;;;;1.43;0.73;;;0.40;99.90;0.10;100381.00;;;;4901514;28;92835;-74
2023/02/26 06:05:36;;;;;;;3.33;0.90;;;0.40;99.90;0.10;100394.00;;;;4930665;28;93043;-75
2023/02/26 06:08:02;;;;;;;2.00;0.90;;;0.40;99.90;0.10;100399.00;;;;4916222;28;94690;-74
2023/02/26 06:10:28;;;;;;;2.10;0.93;;;0.50;99.90;0.20;100406.00;;;;4930620;28;114863;-76
2023/02/26 06:12:54;;;;;;;11.87;1.07;;;0.40;99.90;0.20;100401.00;;;;4933850;28;109875;-73
2023/02/26 06:15:19;;;;;;;3.53;1.00;;;0.50;99.90;0.20;100414.00;;;;4935774;28;109059;-73
2023/02/26 06:17:45;;;;;;;0.63;0.53;;;0.50;99.90;0.20;100413.00;;;;4936043;28;121777;-75
2023/02/26 06:20:11;;;;;;;2.30;0.80;;;1.70;99.90;0.20;100413.00;;;;4932577;28;123338;-76
2023/02/26 06:22:37;;;;;;;1.27;1.17;;;0.50;99.90;0.20;100422.00;;;;4936133;28;96305;-76
2023/02/26 06:25:04;;;;;;;0.70;0.70;;;0.50;99.90;0.20;100425.00;;;;4934581;28;93175;-74
2023/02/26 06:27:30;;;;;;;1.37;1.03;;;0.50;99.90;0.20;100426.00;;;;4913873;28;93729;-75
2023/02/26 06:29:55;;;;;;;3.90;0.70;;;0.50;99.90;0.20;100430.00;;;;4917819;28;92947;-75
2023/02/26 06:32:21;;;;;;;0.57;0.50;;;0.50;99.90;0.30;100438.00;;;;4925845;28;93631;-74
2023/02/26 06:34:47;;;;;;;1.43;0.83;;;0.60;99.90;0.30;100430.00;;;;4950298;28;93243;-74
2023/02/26 06:37:13;;;;;;;1.17;0.67;;;0.50;99.90;0.30;100445.00;;;;4930408;28;92580;-73
2023/02/26 06:39:38;;;;;;;0.50;0.50;;;0.70;99.90;0.30;100448.00;;;;4933584;28;93176;-74
2023/02/26 06:42:04;;;;;;;0.97;0.90;;;1.80;99.90;0.30;100449.00;;;;4919418;28;109673;-74
2023/02/26 06:44:29;;;;;;;3.17;1.17;;;0.60;99.90;0.40;100452.00;;;;4931697;28;110599;-73
2023/02/26 06:46:55;;;;;;;0.60;0.53;;;0.60;99.90;0.40;100437.00;;;;4933423;28;123004;-74
2023/02/26 06:49:21;;;;;;;2.30;1.20;;;0.70;99.90;0.40;100455.00;;;;4930309;28;122143;-76
2023/02/26 06:51:46;;;;;;;1.17;0.83;;;0.70;99.90;0.40;100455.00;;;;4933605;28;92903;-74
2023/02/26 06:54:12;;;;;;;0.77;0.60;;;0.60;99.90;0.40;100466.00;;;;4945276;28;108594;-74
2023/02/26 06:56:38;;;;;;;0.57;0.50;;;0.70;99.90;0.40;100464.00;;;;4932164;28;122877;-74
2023/02/26 06:59:04;;;;;;;0.63;0.60;;;0.80;99.90;0.40;100465.00;;;;4922704;28;122723;-72
2023/02/26 07:01:30;;;;;;;1.40;0.70;;;0.80;99.90;0.40;100457.00;;;;4932069;28;92264;-73
2023/02/26 07:03:56;;;;;;;1.07;0.70;;;0.70;99.90;0.40;100468.00;;;;4928936;28;93020;-74
2023/02/26 07:06:22;;;;;;;2.90;0.47;;;0.90;99.90;0.40;100473.00;;;;4927383;28;123750;-75
2023/02/26 07:08:48;;;;;;;1.30;0.70;;;0.70;99.90;0.40;100480.00;;;;4914420;28;93949;-74
2023/02/26 07:11:14;;;;;;;0.80;0.60;;;1.40;99.90;0.40;100480.00;;;;4926639;28;107684;-75
2023/02/26 07:13:39;;;;;;;2.77;0.50;;;0.80;99.90;0.40;100486.00;;;;4941081;28;92871;-74
2023/02/26 07:16:06;;;;;;;2.00;1.73;;;0.70;99.90;0.40;100491.00;;;;4932549;28;122527;-74
2023/02/26 07:18:38;;;;;;;2.80;1.53;;;0.70;99.90;0.40;100485.00;;;;4911784;28;95356;-75
2023/02/26 07:21:04;;;;;;;1.13;1.03;;;1.20;99.90;0.40;100492.00;;;;4929963;28;99011;-74
2023/02/26 07:23:30;;;;;;;4.97;1.93;;;0.80;99.90;0.50;100500.00;;;;4931538;28;92840;-74
2023/02/26 07:25:56;;;;;;;2.07;1.13;;;0.80;99.90;0.50;100510.00;;;;4930882;28;122227;-76
2023/02/26 07:28:23;;;;;;;1.90;1.23;;;0.70;99.90;0.50;100508.00;;;;4932435;28;92850;-76
2023/02/26 07:30:49;;;;;;;2.03;0.97;;;0.70;99.90;0.50;100514.00;;;;4922696;28;100659;-73
2023/02/26 07:33:15;;;;;;;3.27;0.87;;;0.90;99.90;0.50;100518.00;;;;4929985;28;93952;-77
2023/02/26 07:35:41;;;;;;;1.23;1.00;;;0.80;99.90;0.60;100525.00;;;;4914848;28;122995;-77
2023/02/26 07:38:06;;;;;;;1.40;0.70;;;0.90;99.90;0.60;100532.00;;;;4915423;28;93001;-81
2023/02/26 07:40:32;;;;;;;0.97;0.97;;;2.40;99.90;0.60;100531.00;;;;4917774;28;110643;-78
2023/02/26 07:42:58;;;;;;;1.83;0.70;;;0.90;99.90;0.70;100538.00;;;;4907707;28;97202;-75
2023/02/26 07:45:24;;;;;;;1.80;1.10;;;0.90;99.90;0.70;100534.00;;;;4908809;28;96321;-76
2023/02/26 07:47:51;;;;;;;1.67;0.90;;;0.90;99.90;0.80;100553.00;;;;4917081;28;122788;-76
2023/02/26 07:50:18;;;;;;;3.20;1.43;;;1.80;99.90;0.80;100561.00;;;;4930557;28;92352;-72
2023/02/26 07:52:45;;;;;;;0.53;0.50;;;1.80;99.90;0.80;100553.00;;;;4916018;28;93011;-72
2023/02/26 07:55:11;;;;;;;1.47;1.03;;;1.10;99.90;0.80;100561.00;;;;4931182;28;95096;-73
2023/02/26 07:57:37;;;;;;;0.73;0.70;;;1.10;99.90;0.90;100550.00;;;;4932710;28;94034;-72
2023/02/26 08:00:05;;;;;;;1.43;0.60;;;1.20;99.90;0.90;100552.00;;;;4918665;28;93231;-74
2023/02/26 08:02:31;;;;;;;0.53;0.53;;;1.30;99.90;0.90;100566.00;;;;4934341;28;93405;-70
2023/02/26 08:04:57;;;;;;;0.77;0.50;;;1.30;99.90;1.00;100568.00;;;;4932531;28;121875;-71
2023/02/26 08:07:47;;;;;;;0.83;0.73;;;1.30;99.90;1.00;100571.00;;;;4933412;28;122985;-70
2023/02/26 08:10:13;;;;;;;0.63;0.43;;;1.40;99.90;1.10;100572.00;;;;4950348;28;109078;-69
2023/02/26 08:12:39;;;;;;;0.50;0.50;;;1.40;99.90;1.20;100575.00;;;;4919125;28;107769;-69
2023/02/26 08:15:05;;;;;;;1.43;0.73;;;1.50;99.90;1.30;100582.00;;;;4929158;28;108319;-70
2023/02/26 08:17:31;;;;;;;1.73;0.67;;;1.60;99.90;1.30;100596.00;;;;4932230;28;93098;-70
2023/02/26 08:19:56;;;;;;;1.00;0.87;;;1.60;99.90;1.40;100596.00;;;;4912511;28;108773;-70
2023/02/26 08:22:22;;;;;;;1.33;0.80;;;1.70;99.90;1.40;100600.00;;;;4932113;28;97604;-70
2023/02/26 08:24:49;;;;;;;0.47;0.47;;;1.60;99.90;1.50;100608.00;;;;4932946;28;93975;-70
2023/02/26 08:27:15;;;;;;;1.17;0.77;;;1.70;99.90;1.60;100615.00;;;;4940138;28;92852;-68
2023/02/26 08:29:41;;;;;;;2.20;1.60;;;1.90;99.90;1.70;100611.00;;;;4930036;28;99538;-69
2023/02/26 08:32:08;;;;;;;1.20;1.10;;;1.90;99.90;1.70;100611.00;;;;4933771;28;92915;-69
2023/02/26 08:34:33;;;;;;;0.53;0.50;;;2.00;99.90;1.80;100617.00;;;;4932736;28;93401;-70
2023/02/26 08:36:59;;;;;;;0.70;0.70;;;2.10;99.90;1.80;100614.00;;;;4931037;28;123640;-70
2023/02/26 08:39:25;;;;;;;0.60;0.60;;;2.10;99.90;1.80;100633.00;;;;4926092;28;110030;-71
2023/02/26 08:41:50;;;;;;;1.63;0.57;;;2.50;99.90;1.80;100628.00;;;;4927826;28;93120;-70
2023/02/26 08:44:16;;;;;;;2.20;0.90;;;2.70;99.90;1.90;100638.00;;;;4913543;28;120643;-70
2023/02/26 08:46:42;;;;;;;0.30;0.30;;;3.10;99.90;1.80;100637.00;;;;4938308;28;108858;-69
2023/02/26 08:49:07;;;;;;;0.67;0.43;;;2.20;99.90;1.80;100638.00;;;;4930380;28;110151;-70
2023/02/26 08:51:33;;;;;;;1.80;0.63;;;2.20;99.90;1.80;100655.00;;;;4928090;28;93075;-71
2023/02/26 08:53:59;;;;;;;1.37;0.57;;;2.10;99.90;1.80;100658.00;;;;4932125;28;94192;-70
2023/02/26 08:56:24;;;;;;;0.60;0.60;;;2.10;99.90;1.80;100650.00;;;;4931948;28;99268;-74
2023/02/26 08:58:50;;;;;;;1.73;0.90;;;2.20;99.90;1.90;100656.00;;;;4929817;28;109820;-74
2023/02/26 09:01:16;;;;;;;1.57;1.47;;;2.10;99.90;2.10;100662.00;;;;4915947;28;92633;-71
2023/02/26 09:03:42;;;;;;;4.00;1.60;;;2.30;99.90;2.20;100667.00;;;;4927802;28;122360;-70
2023/02/26 09:06:07;;;;;;;0.50;0.50;;;2.40;99.90;2.30;100661.00;;;;4937735;28;97383;-70
2023/02/26 09:08:33;;;;;;;1.17;0.87;;;2.50;99.90;2.40;100665.00;;;;4930607;28;109470;-69
2023/02/26 09:11:01;;;;;;;1.13;0.80;;;2.60;99.90;2.50;100681.00;;;;4928762;28;108942;-71
2023/02/26 09:13:28;;;;;;;0.57;0.53;;;2.80;99.90;2.60;100681.00;;;;4925596;28;93955;-69
2023/02/26 09:15:53;;;;;;;0.60;0.60;;;2.80;99.90;2.60;100672.00;;;;4913140;28;93017;-69
2023/02/26 09:18:19;;;;;;;0.70;0.67;;;2.80;99.90;2.70;100685.00;;;;4932090;28;109558;-68
2023/02/26 09:20:45;;;;;;;2.53;1.17;;;2.90;99.90;2.70;100680.00;;;;4930900;28;108747;-70
2023/02/26 09:23:11;;;;;;;2.33;1.30;;;3.60;99.90;2.80;100695.00;;;;4919378;28;114871;-70
2023/02/26 09:25:37;;;;;;;0.93;0.90;;;3.00;99.90;2.90;100698.00;;;;4933196;28;92972;-70
2023/02/26 09:28:03;;;;;;;1.70;1.17;;;4.10;99.90;3.00;100706.00;;;;4933192;28;92255;-71
2023/02/26 09:30:30;;;;;;;2.93;1.13;;;3.30;99.90;3.00;100704.00;;;;4931449;28;93566;-67
2023/02/26 09:32:55;;;;;;;0.63;0.63;;;3.30;99.90;3.10;100726.00;;;;4932025;28;94454;-69
2023/02/26 09:35:21;;;;;;;0.73;0.67;;;3.50;99.90;3.20;100725.00;;;;4926194;28;123303;-68
2023/02/26 09:37:47;;;;;;;0.97;0.93;;;3.50;99.90;3.20;100734.00;;;;4928728;28;110265;-68
2023/02/26 09:40:47;;;;;;;0.87;0.57;;;3.50;99.90;3.20;100737.00;;;;4931195;28;92758;-69
2023/02/26 09:43:46;;;;;;;0.60;0.60;;;3.50;99.90;3.20;100739.00;;;;4942706;28;103388;-68
2023/02/26 09:46:31;;;;;;;1.73;1.63;;;3.40;99.90;3.10;100737.00;;;;4915302;28;94040;-69
2023/02/26 09:49:09;;;;;;;0.93;0.87;;;3.50;99.90;3.00;100746.00;;;;4929992;28;93175;-68
2023/02/26 09:51:35;;;;;;;1.30;1.20;;;3.40;99.90;3.00;100744.00;;;;4913073;28;92925;-68
2023/02/26 09:54:16;;;;;;;6.57;2.57;;;3.20;99.90;3.00;100749.00;;;;4906868;28;118357;-67
2023/02/26 09:56:43;;;;;;;5.67;3.97;;;3.30;99.90;3.10;100738.00;;;;4928595;28;92763;-67
2023/02/26 09:59:10;;;;;;;2.17;1.93;;;3.70;99.90;3.30;100757.00;;;;4921118;28;93003;-68
2023/02/26 10:01:59;;;;;;;49.67;34.80;;;3.50;99.90;3.40;100757.00;;;;4923263;28;93852;-66
2023/02/26 10:04:57;;;;;;;5.40;2.67;;;3.60;99.90;3.60;100747.00;;;;4915219;28;97041;-68
2023/02/26 10:07:56;;;;;;;2.00;1.87;;;3.70;99.90;4.00;100759.00;;;;4912131;28;112998;-67
2023/02/26 10:11:00;;;;;;;0.67;0.60;;;4.10;99.90;4.60;100761.00;;;;4916663;28;94719;-70
2023/02/26 10:13:42;;;;;;;7.50;5.17;;;4.60;99.90;4.90;100757.00;;;;4917913;28;93670;-70
2023/02/26 10:16:15;;;;;;;1.13;0.93;;;4.90;99.90;5.30;100765.00;;;;4923891;28;112297;-70
2023/02/26 10:18:55;;;;;;;3.87;1.17;;;5.30;99.90;5.70;100766.00;;;;4928225;28;92894;-71
2023/02/26 10:21:35;;;;;;;4.33;1.00;;;6.20;99.90;5.80;100780.00;;;;4946375;28;92042;-70
2023/02/26 10:24:14;;;;;;;1.60;0.57;;;6.70;99.90;5.90;100777.00;;;;4932640;28;92934;-69
2023/02/26 10:26:49;;;;;;;1.27;0.60;;;6.00;99.90;5.90;100791.00;;;;4927934;28;92907;-70
2023/02/26 10:29:31;;;;;;;0.60;0.60;;;6.20;99.90;6.10;100782.00;;;;4926044;28;112552;-67
2023/02/26 10:32:17;;;;;;;0.83;0.67;;;6.50;99.90;6.70;100789.00;;;;4930845;28;92849;-66
2023/02/26 10:34:53;;;;;;;1.70;1.30;;;6.60;99.90;7.10;100790.00;;;;4926899;28;92754;-68
2023/02/26 10:37:43;;;;;;;2.33;0.80;;;7.00;99.90;7.10;100808.00;;;;4925051;28;93071;-70
2023/02/26 10:40:36;;;;;;;1.53;0.70;;;7.20;99.90;7.00;100798.00;;;;4942010;28;92950;-68
2023/02/26 10:43:41;;;;;;;0.47;0.43;;;7.10;99.90;6.80;100802.00;;;;4929450;28;94688;-69
2023/02/26 10:46:37;;;;;;;2.00;0.73;;;7.00;99.90;6.90;100807.00;;;;4926551;28;92687;-66
2023/02/26 10:49:29;;;;;;;1.43;0.77;;;7.10;99.90;6.90;100804.00;;;;4931585;28;92178;-67
2023/02/26 10:51:57;;;;;;;2.13;0.70;;;7.10;99.90;7.20;100807.00;;;;4922953;28;93197;-68
2023/02/26 10:54:32;;;;;;;1.73;0.57;;;7.40;99.90;7.60;100821.00;;;;4916580;28;100549;-71
2023/02/26 10:56:58;;;;;;;1.03;0.63;;;7.50;99.90;8.10;100814.00;;;;4936668;28;94065;-68
2023/02/26 10:59:24;;;;;;;0.50;0.50;;;7.90;99.90;8.40;100820.00;;;;4936678;28;120448;-69
2023/02/26 11:01:51;;;;;;;0.97;0.60;;;8.30;99.90;8.60;100823.00;;;;4929823;28;123382;-69
2023/02/26 11:04:23;;;;;;;1.43;0.90;;;8.60;99.90;8.80;100828.00;;;;4930549;28;93236;-69
2023/02/26 11:06:55;;;;;;;0.30;0.30;;;8.80;99.90;8.70;100830.00;;;;4913959;28;93055;-69
2023/02/26 11:09:32;;;;;;;0.17;0.17;;;8.80;99.90;8.40;100828.00;;;;4930628;28;105682;-69
2023/02/26 11:12:09;;;;;;;1.57;0.47;;;8.60;99.90;7.90;100836.00;;;;4930783;28;93372;-68
2023/02/26 11:14:36;;;;;;;2.20;0.53;;;8.10;99.90;7.50;100836.00;;;;4934774;28;93109;-68
2023/02/26 11:17:32;;;;;;;3.23;1.73;;;7.80;99.90;6.90;100843.00;;;;4942923;28;109691;-66
2023/02/26 11:20:39;;;;;;;3.27;1.53;;;7.30;99.90;6.40;100844.00;;;;4916881;28;121829;-67
2023/02/26 11:23:18;;;;;;;10.23;6.33;;;6.90;99.90;6.10;100838.00;;;;4872030;28;115379;-67